sensor_id;sensor_type;location;lat;lon;timestamp;pressure;altitude;pressure_sealevel;temperature;humidity
68107;BME280;54892;47.488;19.026;2023-04-10T00:00:24;100723.78;;;6.11;73.61
68107;BME280;54892;47.488;19.026;2023-04-10T00:03:28;100730.00;;;6.17;73.57
68107;BME280;54892;47.488;19.026;2023-04-10T00:06:32;100720.00;;;6.00;74.06
68107;BME280;54892;47.488;19.026;2023-04-10T00:09:35;100723.62;;;5.86;74.68
68107;BME280;54892;47.488;19.026;2023-04-10T00:12:38;100722.25;;;5.70;75.40
68107;BME280;54892;47.488;19.026;2023-04-10T00:15:43;100723.28;;;5.69;75.62
68107;BME280;54892;47.488;19.026;2023-04-10T00:18:46;100719.66;;;5.70;75.50
68107;BME280;54892;47.488;19.026;2023-04-10T00:21:49;100712.41;;;5.65;76.06
68107;BME280;54892;47.488;19.026;2023-04-10T00:24:52;100716.06;;;5.44;77.11
68107;BME280;54892;47.488;19.026;2023-04-10T00:27:55;100710.63;;;5.32;77.85
68107;BME280;54892;47.488;19.026;2023-04-10T00:31:00;100717.25;;;5.21;78.26
68107;BME280;54892;47.488;19.026;2023-04-10T00:34:03;100711.03;;;5.15;78.53
68107;BME280;54892;47.488;19.026;2023-04-10T00:37:07;100704.97;;;5.15;78.46
68107;BME280;54892;47.488;19.026;2023-04-10T00:40:11;100700.75;;;5.14;78.32
68107;BME280;54892;47.488;19.026;2023-04-10T00:43:14;100705.41;;;5.12;78.47
68107;BME280;54892;47.488;19.026;2023-04-10T00:46:21;100704.97;;;5.08;78.75
68107;BME280;54892;47.488;19.026;2023-04-10T00:49:24;100703.97;;;5.16;79.13
68107;BME280;54892;47.488;19.026;2023-04-10T00:52:27;100698.34;;;5.12;79.52
68107;BME280;54892;47.488;19.026;2023-04-10T00:55:30;100700.16;;;5.12;79.27
68107;BME280;54892;47.488;19.026;2023-04-10T00:58:33;100689.88;;;5.03;79.49
68107;BME280;54892;47.488;19.026;2023-04-10T01:01:38;100690.72;;;5.04;79.17
68107;BME280;54892;47.488;19.026;2023-04-10T01:04:40;100693.50;;;5.02;79.77
68107;BME280;54892;47.488;19.026;2023-04-10T01:07:48;100689.69;;;5.05;79.85
68107;BME280;54892;47.488;19.026;2023-04-10T01:10:54;100688.66;;;4.99;79.92
68107;BME280;54892;47.488;19.026;2023-04-10T01:14:04;100690.87;;;5.02;79.34
68107;BME280;54892;47.488;19.026;2023-04-10T01:17:11;100683.44;;;4.86;80.18
68107;BME280;54892;47.488;19.026;2023-04-10T01:20:17;100682.19;;;4.75;80.47
68107;BME280;54892;47.488;19.026;2023-04-10T01:23:28;100682.19;;;4.68;81.43
68107;BME280;54892;47.488;19.026;2023-04-10T01:26:39;100682.78;;;4.64;81.52
68107;BME280;54892;47.488;19.026;2023-04-10T01:29:47;100680.56;;;4.54;82.11
68107;BME280;54892;47.488;19.026;2023-04-10T01:32:54;100680.78;;;4.59;82.28
68107;BME280;54892;47.488;19.026;2023-04-10T01:36:00;100683.00;;;4.62;82.05
68107;BME280;54892;47.488;19.026;2023-04-10T01:39:04;100680.16;;;4.57;82.16
68107;BME280;54892;47.488;19.026;2023-04-10T01:42:09;100687.00;;;4.51;82.38
68107;BME280;54892;47.488;19.026;2023-04-10T01:45:16;100682.16;;;4.41;82.83
68107;BME280;54892;47.488;19.026;2023-04-10T01:48:20;100680.53;;;4.40;83.21
68107;BME280;54892;47.488;19.026;2023-04-10T01:51:23;100688.37;;;4.40;83.55
68107;BME280;54892;47.488;19.026;2023-04-10T01:54:26;100688.56;;;4.39;83.38
68107;BME280;54892;47.488;19.026;2023-04-10T01:57:29;100685.34;;;4.37;83.68
68107;BME280;54892;47.488;19.026;2023-04-10T02:00:37;100681.53;;;4.39;83.90
68107;BME280;54892;47.488;19.026;2023-04-10T02:03:41;100678.31;;;4.44;83.67
68107;BME280;54892;47.488;19.026;2023-04-10T02:06:47;100683.75;;;4.42;83.34
68107;BME280;54892;47.488;19.026;2023-04-10T02:09:53;100682.53;;;4.45;83.36
68107;BME280;54892;47.488;19.026;2023-04-10T02:12:58;100682.16;;;4.55;83.36
68107;BME280;54892;47.488;19.026;2023-04-10T02:16:04;100677.37;;;4.59;83.18
68107;BME280;54892;47.488;19.026;2023-04-10T02:19:09;100683.78;;;4.56;83.24
68107;BME280;54892;47.488;19.026;2023-04-10T02:22:12;100673.31;;;4.56;83.28
68107;BME280;54892;47.488;19.026;2023-04-10T02:25:17;100679.78;;;4.53;83.01
68107;BME280;54892;47.488;19.026;2023-04-10T02:28:20;100681.78;;;4.58;82.87
68107;BME280;54892;47.488;19.026;2023-04-10T02:31:24;100678.16;;;4.59;82.88
68107;BME280;54892;47.488;19.026;2023-04-10T02:34:27;100674.94;;;4.57;83.05
68107;BME280;54892;47.488;19.026;2023-04-10T02:37:31;100679.38;;;4.50;83.11
68107;BME280;54892;47.488;19.026;2023-04-10T02:40:35;100674.91;;;4.44;83.58
68107;BME280;54892;47.488;19.026;2023-04-10T02:43:38;100669.69;;;4.44;83.30
68107;BME280;54892;47.488;19.026;2023-04-10T02:46:43;100672.69;;;4.47;83.25
68107;BME280;54892;47.488;19.026;2023-04-10T02:49:46;100668.91;;;4.43;83.43
68107;BME280;54892;47.488;19.026;2023-04-10T02:52:49;100665.03;;;4.32;83.26
68107;BME280;54892;47.488;19.026;2023-04-10T02:55:52;100663.03;;;4.28;83.45
68107;BME280;54892;47.488;19.026;2023-04-10T02:58:56;100660.19;;;4.29;83.61
68107;BME280;54892;47.488;19.026;2023-04-10T03:02:00;100655.75;;;4.23;83.75
68107;BME280;54892;47.488;19.026;2023-04-10T03:05:04;100656.75;;;4.22;83.76
68107;BME280;54892;47.488;19.026;2023-04-10T03:08:07;100651.53;;;4.22;83.97
68107;BME280;54892;47.488;19.026;2023-04-10T03:11:10;100646.28;;;4.22;84.08
68107;BME280;54892;47.488;19.026;2023-04-10T03:14:12;100646.28;;;4.15;84.32
68107;BME280;54892;47.488;19.026;2023-04-10T03:17:17;100648.72;;;4.17;84.55
68107;BME280;54892;47.488;19.026;2023-04-10T03:20:20;100649.88;;;4.14;84.19
68107;BME280;54892;47.488;19.026;2023-04-10T03:23:22;100655.56;;;4.18;83.92
68107;BME280;54892;47.488;19.026;2023-04-10T03:26:27;100654.72;;;4.10;84.37
68107;BME280;54892;47.488;19.026;2023-04-10T03:29:30;100652.31;;;4.09;84.54
68107;BME280;54892;47.488;19.026;2023-04-10T03:32:34;100654.88;;;3.95;85.05
68107;BME280;54892;47.488;19.026;2023-04-10T03:35:37;100658.25;;;3.89;85.34
68107;BME280;54892;47.488;19.026;2023-04-10T03:38:40;100655.62;;;3.89;85.71
68107;BME280;54892;47.488;19.026;2023-04-10T03:41:43;100665.69;;;3.92;85.20
68107;BME280;54892;47.488;19.026;2023-04-10T03:44:46;100653.81;;;3.90;85.46
68107;BME280;54892;47.488;19.026;2023-04-10T03:47:50;100656.03;;;3.93;85.48
68107;BME280;54892;47.488;19.026;2023-04-10T03:50:53;100658.88;;;3.98;85.23
68107;BME280;54892;47.488;19.026;2023-04-10T03:53:56;100662.12;;;4.00;84.74
68107;BME280;54892;47.488;19.026;2023-04-10T03:56:59;100668.34;;;3.99;84.65
68107;BME280;54892;47.488;19.026;2023-04-10T04:00:03;100664.50;;;3.95;84.75
68107;BME280;54892;47.488;19.026;2023-04-10T04:03:08;100663.50;;;3.96;84.69
68107;BME280;54892;47.488;19.026;2023-04-10T04:06:11;100666.72;;;3.98;84.90
68107;BME280;54892;47.488;19.026;2023-04-10T04:09:15;100669.72;;;3.95;84.84
68107;BME280;54892;47.488;19.026;2023-04-10T04:12:17;100674.94;;;3.95;85.31
68107;BME280;54892;47.488;19.026;2023-04-10T04:15:21;100676.34;;;3.97;85.11
68107;BME280;54892;47.488;19.026;2023-04-10T04:18:25;100674.16;;;3.94;85.20
68107;BME280;54892;47.488;19.026;2023-04-10T04:21:28;100670.72;;;3.94;85.24
68107;BME280;54892;47.488;19.026;2023-04-10T04:24:32;100676.34;;;3.97;85.39
68107;BME280;54892;47.488;19.026;2023-04-10T04:27:34;100678.00;;;4.05;85.74
68107;BME280;54892;47.488;19.026;2023-04-10T04:30:37;100682.44;;;4.11;85.74
68107;BME280;54892;47.488;19.026;2023-04-10T04:33:42;100677.06;;;4.20;85.78
68107;BME280;54892;47.488;19.026;2023-04-10T04:36:45;100680.50;;;4.27;85.69
68107;BME280;54892;47.488;19.026;2023-04-10T04:39:48;100682.72;;;4.30;85.64
68107;BME280;54892;47.488;19.026;2023-04-10T04:42:51;100687.34;;;4.35;85.33
68107;BME280;54892;47.488;19.026;2023-04-10T04:45:54;100689.56;;;4.38;85.45
68107;BME280;54892;47.488;19.026;2023-04-10T04:48:59;100690.97;;;4.40;85.52
68107;BME280;54892;47.488;19.026;2023-04-10T04:52:01;100691.78;;;4.34;85.86
68107;BME280;54892;47.488;19.026;2023-04-10T04:55:05;100696.81;;;4.36;86.32
68107;BME280;54892;47.488;19.026;2023-04-10T04:58:09;100698.06;;;4.47;85.82
68107;BME280;54892;47.488;19.026;2023-04-10T05:01:12;100704.09;;;4.61;85.43
68107;BME280;54892;47.488;19.026;2023-04-10T05:04:16;100704.94;;;4.68;85.19
68107;BME280;54892;47.488;19.026;2023-04-10T05:07:21;100702.34;;;4.75;84.98
68107;BME280;54892;47.488;19.026;2023-04-10T05:10:24;100707.19;;;4.84;84.55
68107;BME280;54892;47.488;19.026;2023-04-10T05:13:27;100702.75;;;4.98;84.25
68107;BME280;54892;47.488;19.026;2023-04-10T05:16:30;100715.25;;;5.16;83.23
68107;BME280;54892;47.488;19.026;2023-04-10T05:19:34;100717.47;;;5.40;82.47
68107;BME280;54892;47.488;19.026;2023-04-10T05:22:37;100724.28;;;5.61;81.84
68107;BME280;54892;47.488;19.026;2023-04-10T05:25:40;100723.66;;;5.66;80.51
68107;BME280;54892;47.488;19.026;2023-04-10T05:28:43;100716.34;;;5.94;79.55
68107;BME280;54892;47.488;19.026;2023-04-10T05:31:46;100722.31;;;6.29;77.74
68107;BME280;54892;47.488;19.026;2023-04-10T05:34:50;100712.88;;;6.92;76.21
68107;BME280;54892;47.488;19.026;2023-04-10T05:37:53;100712.66;;;7.44;73.36
68107;BME280;54892;47.488;19.026;2023-04-10T05:40:57;100710.81;;;7.70;71.32
68107;BME280;54892;47.488;19.026;2023-04-10T05:44:00;100716.06;;;7.88;70.36
68107;BME280;54892;47.488;19.026;2023-04-10T05:47:03;100720.97;;;8.22;68.47
68107;BME280;54892;47.488;19.026;2023-04-10T05:50:07;100718.94;;;8.36;67.48
68107;BME280;54892;47.488;19.026;2023-04-10T05:53:12;100720.50;;;8.74;66.08
68107;BME280;54892;47.488;19.026;2023-04-10T05:56:15;100714.03;;;9.01;65.15
68107;BME280;54892;47.488;19.026;2023-04-10T05:59:18;100721.63;;;8.66;66.19
68107;BME280;54892;47.488;19.026;2023-04-10T06:02:21;100715.66;;;9.02;65.79
68107;BME280;54892;47.488;19.026;2023-04-10T06:05:26;100720.94;;;9.73;63.72
68107;BME280;54892;47.488;19.026;2023-04-10T06:08:29;100718.50;;;10.24;62.07
68107;BME280;54892;47.488;19.026;2023-04-10T06:11:32;100716.62;;;10.48;61.19
68107;BME280;54892;47.488;19.026;2023-04-10T06:14:35;100719.84;;;10.68;60.73
68107;BME280;54892;47.488;19.026;2023-04-10T06:17:40;100721.37;;;10.63;60.54
68107;BME280;54892;47.488;19.026;2023-04-10T06:20:45;100718.59;;;10.87;59.58
68107;BME280;54892;47.488;19.026;2023-04-10T06:23:48;100706.28;;;10.93;58.11
68107;BME280;54892;47.488;19.026;2023-04-10T06:26:51;100711.87;;;11.14;57.82
68107;BME280;54892;47.488;19.026;2023-04-10T06:29:55;100719.84;;;11.53;56.90
68107;BME280;54892;47.488;19.026;2023-04-10T06:32:58;100723.03;;;11.55;56.22
68107;BME280;54892;47.488;19.026;2023-04-10T06:36:03;100719.41;;;11.22;57.33
68107;BME280;54892;47.488;19.026;2023-04-10T06:39:06;100717.97;;;11.93;54.95
68107;BME280;54892;47.488;19.026;2023-04-10T06:42:09;100720.47;;;12.76;53.45
68107;BME280;54892;47.488;19.026;2023-04-10T06:45:12;100730.28;;;13.46;51.29
68107;BME280;54892;47.488;19.026;2023-04-10T06:48:15;100721.00;;;14.02;50.51
68107;BME280;54892;47.488;19.026;2023-04-10T06:51:19;100730.59;;;14.13;50.05
68107;BME280;54892;47.488;19.026;2023-04-10T06:54:22;100726.91;;;14.25;49.88
68107;BME280;54892;47.488;19.026;2023-04-10T06:57:25;100717.12;;;15.39;47.10
68107;BME280;54892;47.488;19.026;2023-04-10T07:00:29;100724.38;;;15.23;46.77
68107;BME280;54892;47.488;19.026;2023-04-10T07:03:32;100718.66;;;15.71;45.13
68107;BME280;54892;47.488;19.026;2023-04-10T07:06:36;100719.06;;;16.89;41.65
68107;BME280;54892;47.488;19.026;2023-04-10T07:09:39;100724.41;;;17.48;40.44
68107;BME280;54892;47.488;19.026;2023-04-10T07:12:42;100730.31;;;18.32;37.10
68107;BME280;54892;47.488;19.026;2023-04-10T07:15:45;100724.22;;;18.83;35.75
68107;BME280;54892;47.488;19.026;2023-04-10T07:18:48;100726.91;;;19.72;34.05
68107;BME280;54892;47.488;19.026;2023-04-10T07:21:52;100721.16;;;20.07;32.54
68107;BME280;54892;47.488;19.026;2023-04-10T07:24:56;100719.47;;;19.97;32.60
68107;BME280;54892;47.488;19.026;2023-04-10T07:27:59;100716.38;;;20.04;32.37
68107;BME280;54892;47.488;19.026;2023-04-10T07:31:02;100717.38;;;20.08;32.22
68107;BME280;54892;47.488;19.026;2023-04-10T07:34:05;100716.91;;;20.29;31.00
68107;BME280;54892;47.488;19.026;2023-04-10T07:37:09;100709.66;;;21.29;29.11
68107;BME280;54892;47.488;19.026;2023-04-10T07:40:13;100712.91;;;20.86;29.17
68107;BME280;54892;47.488;19.026;2023-04-10T07:43:16;100716.19;;;20.37;29.89
68107;BME280;54892;47.488;19.026;2023-04-10T07:46:19;100710.16;;;19.81;30.66
68107;BME280;54892;47.488;19.026;2023-04-10T07:49:22;100707.91;;;20.70;29.69
68107;BME280;54892;47.488;19.026;2023-04-10T07:52:26;100696.56;;;20.28;30.12
68107;BME280;54892;47.488;19.026;2023-04-10T07:55:29;100694.31;;;20.89;29.92
68107;BME280;54892;47.488;19.026;2023-04-10T07:58:32;100690.03;;;20.88;28.52
68107;BME280;54892;47.488;19.026;2023-04-10T08:01:35;100697.22;;;20.11;29.63
68107;BME280;54892;47.488;19.026;2023-04-10T08:04:38;100691.81;;;19.74;31.10
68107;BME280;54892;47.488;19.026;2023-04-10T08:07:44;100693.81;;;18.08;32.56
68107;BME280;54892;47.488;19.026;2023-04-10T08:10:47;100699.28;;;17.25;35.01
68107;BME280;54892;47.488;19.026;2023-04-10T08:13:50;100691.50;;;16.29;35.69
68107;BME280;54892;47.488;19.026;2023-04-10T08:16:53;100689.94;;;16.23;36.93
68107;BME280;54892;47.488;19.026;2023-04-10T08:19:56;100685.41;;;15.63;38.15
68107;BME280;54892;47.488;19.026;2023-04-10T08:23:00;100687.09;;;15.38;39.47
68107;BME280;54892;47.488;19.026;2023-04-10T08:26:13;100689.75;;;15.38;39.55
68107;BME280;54892;47.488;19.026;2023-04-10T08:29:16;100696.16;;;15.27;38.73
68107;BME280;54892;47.488;19.026;2023-04-10T08:32:19;100694.34;;;15.02;37.76
68107;BME280;54892;47.488;19.026;2023-04-10T08:35:22;100683.72;;;14.76;36.83
68107;BME280;54892;47.488;19.026;2023-04-10T08:38:27;100682.38;;;14.89;37.30
68107;BME280;54892;47.488;19.026;2023-04-10T08:41:30;100677.59;;;14.81;36.56
68107;BME280;54892;47.488;19.026;2023-04-10T08:44:33;100677.09;;;14.79;36.70
68107;BME280;54892;47.488;19.026;2023-04-10T08:47:38;100676.00;;;14.74;36.62
68107;BME280;54892;47.488;19.026;2023-04-10T08:50:42;100665.59;;;14.37;37.03
68107;BME280;54892;47.488;19.026;2023-04-10T08:53:49;100667.75;;;14.40;37.07
68107;BME280;54892;47.488;19.026;2023-04-10T08:56:52;100670.66;;;14.49;37.55
68107;BME280;54892;47.488;19.026;2023-04-10T08:59:56;100676.78;;;14.65;37.51
68107;BME280;54892;47.488;19.026;2023-04-10T09:03:02;100679.66;;;14.27;37.07
68107;BME280;54892;47.488;19.026;2023-04-10T09:06:06;100671.34;;;13.97;38.18
68107;BME280;54892;47.488;19.026;2023-04-10T09:09:10;100664.78;;;14.26;39.25
68107;BME280;54892;47.488;19.026;2023-04-10T09:12:13;100661.09;;;14.42;38.91
68107;BME280;54892;47.488;19.026;2023-04-10T09:15:18;100659.22;;;14.58;38.78
68107;BME280;54892;47.488;19.026;2023-04-10T09:18:20;100652.31;;;14.57;36.63
68107;BME280;54892;47.488;19.026;2023-04-10T09:21:24;100663.19;;;14.25;38.02
68107;BME280;54892;47.488;19.026;2023-04-10T09:24:29;100659.78;;;14.50;38.21
68107;BME280;54892;47.488;19.026;2023-04-10T09:27:32;100650.22;;;14.54;37.61
68107;BME280;54892;47.488;19.026;2023-04-10T09:30:36;100644.34;;;14.47;38.91
68107;BME280;54892;47.488;19.026;2023-04-10T09:33:40;100648.31;;;14.34;38.88
68107;BME280;54892;47.488;19.026;2023-04-10T09:36:51;100647.28;;;14.45;38.59
68107;BME280;54892;47.488;19.026;2023-04-10T09:39:56;100644.63;;;14.45;39.06
68107;BME280;54892;47.488;19.026;2023-04-10T09:42:59;100646.53;;;14.86;39.00
68107;BME280;54892;47.488;19.026;2023-04-10T09:46:24;100640.41;;;14.91;39.60
68107;BME280;54892;47.488;19.026;2023-04-10T09:49:31;100633.41;;;15.11;38.74
68107;BME280;54892;47.488;19.026;2023-04-10T09:52:46;100631.06;;;14.62;38.20
68107;BME280;54892;47.488;19.026;2023-04-10T09:55:50;100629.75;;;14.65;38.18
68107;BME280;54892;47.488;19.026;2023-04-10T09:58:54;100625.50;;;14.85;36.93
68107;BME280;54892;47.488;19.026;2023-04-10T10:01:58;100621.81;;;14.70;37.41
68107;BME280;54892;47.488;19.026;2023-04-10T10:05:01;100623.37;;;14.82;37.24
68107;BME280;54892;47.488;19.026;2023-04-10T10:08:06;100620.19;;;14.85;36.81
68107;BME280;54892;47.488;19.026;2023-04-10T10:11:11;100617.84;;;14.68;37.03
68107;BME280;54892;47.488;19.026;2023-04-10T10:14:16;100613.28;;;14.94;36.84
68107;BME280;54892;47.488;19.026;2023-04-10T10:17:20;100612.50;;;14.78;36.68
68107;BME280;54892;47.488;19.026;2023-04-10T10:20:25;100612.19;;;14.64;37.21
68107;BME280;54892;47.488;19.026;2023-04-10T10:23:30;100606.41;;;14.77;36.97
68107;BME280;54892;47.488;19.026;2023-04-10T10:26:36;100605.06;;;14.80;36.52
68107;BME280;54892;47.488;19.026;2023-04-10T10:29:40;100608.75;;;14.64;37.59
68107;BME280;54892;47.488;19.026;2023-04-10T10:32:46;100603.16;;;14.65;37.59
68107;BME280;54892;47.488;19.026;2023-04-10T10:35:51;100602.44;;;14.70;36.98
68107;BME280;54892;47.488;19.026;2023-04-10T10:38:57;100603.19;;;14.34;38.13
68107;BME280;54892;47.488;19.026;2023-04-10T10:42:07;100601.06;;;14.57;37.95
68107;BME280;54892;47.488;19.026;2023-04-10T10:45:11;100603.72;;;14.46;38.31
68107;BME280;54892;47.488;19.026;2023-04-10T10:48:15;100593.63;;;14.43;37.79
68107;BME280;54892;47.488;19.026;2023-04-10T10:51:18;100597.38;;;14.48;38.23
68107;BME280;54892;47.488;19.026;2023-04-10T10:54:30;100595.75;;;14.41;38.59
68107;BME280;54892;47.488;19.026;2023-04-10T10:57:47;100599.19;;;14.26;38.49
68107;BME280;54892;47.488;19.026;2023-04-10T11:11:03;100593.59;;;14.18;40.44
68107;BME280;54892;47.488;19.026;2023-04-10T11:14:13;100587.78;;;14.10;40.47
68107;BME280;54892;47.488;19.026;2023-04-10T11:21:07;100590.19;;;14.22;40.19
68107;BME280;54892;47.488;19.026;2023-04-10T11:24:10;100587.25;;;14.24;40.09
68107;BME280;54892;47.488;19.026;2023-04-10T11:30:32;100580.34;;;14.23;41.10
68107;BME280;54892;47.488;19.026;2023-04-10T11:33:36;100581.16;;;14.23;41.54
68107;BME280;54892;47.488;19.026;2023-04-10T11:36:40;100587.19;;;13.88;42.38
68107;BME280;54892;47.488;19.026;2023-04-10T11:39:43;100586.66;;;13.75;42.69
68107;BME280;54892;47.488;19.026;2023-04-10T11:42:46;100577.13;;;13.90;42.76
68107;BME280;54892;47.488;19.026;2023-04-10T11:45:50;100585.06;;;13.79;42.84
68107;BME280;54892;47.488;19.026;2023-04-10T11:49:00;100586.91;;;13.74;43.66
68107;BME280;54892;47.488;19.026;2023-04-10T11:52:03;100593.53;;;13.71;43.87
68107;BME280;54892;47.488;19.026;2023-04-10T11:55:07;100594.38;;;13.77;43.82
68107;BME280;54892;47.488;19.026;2023-04-10T11:58:20;100581.09;;;13.77;44.26
68107;BME280;54892;47.488;19.026;2023-04-10T12:01:24;100585.59;;;13.86;44.16
68107;BME280;54892;47.488;19.026;2023-04-10T12:04:27;100580.56;;;13.85;43.52
68107;BME280;54892;47.488;19.026;2023-04-10T12:07:31;100574.97;;;13.76;44.48
68107;BME280;54892;47.488;19.026;2023-04-10T12:10:43;100574.44;;;13.74;47.33
68107;BME280;54892;47.488;19.026;2023-04-10T12:13:47;100578.19;;;13.83;46.16
68107;BME280;54892;47.488;19.026;2023-04-10T12:16:51;100568.09;;;13.80;47.29
68107;BME280;54892;47.488;19.026;2023-04-10T12:19:54;100572.87;;;13.83;45.06
68107;BME280;54892;47.488;19.026;2023-04-10T12:22:58;100565.47;;;13.85;43.99
68107;BME280;54892;47.488;19.026;2023-04-10T12:26:10;100555.66;;;14.01;44.60
68107;BME280;54892;47.488;19.026;2023-04-10T12:29:13;100565.75;;;14.15;43.75
68107;BME280;54892;47.488;19.026;2023-04-10T12:32:18;100558.25;;;13.81;44.47
68107;BME280;54892;47.488;19.026;2023-04-10T12:35:36;100551.84;;;13.46;45.58
68107;BME280;54892;47.488;19.026;2023-04-10T12:38:39;100544.41;;;13.53;45.80
68107;BME280;54892;47.488;19.026;2023-04-10T12:41:43;100548.41;;;13.61;46.18
68107;BME280;54892;47.488;19.026;2023-04-10T12:44:49;100527.75;;;13.73;46.21
68107;BME280;54892;47.488;19.026;2023-04-10T12:47:54;100525.59;;;13.49;46.96
68107;BME280;54892;47.488;19.026;2023-04-10T12:50:58;100516.09;;;13.69;46.38
68107;BME280;54892;47.488;19.026;2023-04-10T12:54:01;100513.94;;;13.71;46.12
68107;BME280;54892;47.488;19.026;2023-04-10T12:57:05;100501.25;;;13.83;45.70
68107;BME280;54892;47.488;19.026;2023-04-10T13:00:08;100494.87;;;14.05;46.11
68107;BME280;54892;47.488;19.026;2023-04-10T13:03:13;100491.13;;;14.37;44.97
68107;BME280;54892;47.488;19.026;2023-04-10T13:06:17;100491.66;;;14.44;44.71
68107;BME280;54892;47.488;19.026;2023-04-10T13:09:20;100484.19;;;14.52;45.04
68107;BME280;54892;47.488;19.026;2023-04-10T13:12:23;100484.44;;;14.60;44.44
68107;BME280;54892;47.488;19.026;2023-04-10T13:15:26;100476.75;;;14.69;43.74
68107;BME280;54892;47.488;19.026;2023-04-10T13:18:31;100471.63;;;14.88;44.17
68107;BME280;54892;47.488;19.026;2023-04-10T13:21:36;100465.03;;;14.65;43.73
68107;BME280;54892;47.488;19.026;2023-04-10T13:24:38;100466.66;;;14.61;43.41
68107;BME280;54892;47.488;19.026;2023-04-10T13:27:41;100457.87;;;14.66;43.31
68107;BME280;54892;47.488;19.026;2023-04-10T13:30:45;100453.87;;;14.79;43.05
68107;BME280;54892;47.488;19.026;2023-04-10T13:33:49;100454.59;;;14.89;44.39
68107;BME280;54892;47.488;19.026;2023-04-10T13:36:52;100447.31;;;15.11;43.23
68107;BME280;54892;47.488;19.026;2023-04-10T13:39:55;100440.47;;;14.99;43.32
68107;BME280;54892;47.488;19.026;2023-04-10T13:42:59;100439.78;;;14.73;43.60
68107;BME280;54892;47.488;19.026;2023-04-10T13:46:02;100429.97;;;14.73;45.07
68107;BME280;54892;47.488;19.026;2023-04-10T13:49:06;100426.19;;;14.85;43.95
68107;BME280;54892;47.488;19.026;2023-04-10T13:52:09;100417.34;;;15.00;43.41
68107;BME280;54892;47.488;19.026;2023-04-10T13:55:12;100413.31;;;15.07;42.77
68107;BME280;54892;47.488;19.026;2023-04-10T13:58:15;100418.06;;;15.16;42.42
68107;BME280;54892;47.488;19.026;2023-04-10T14:01:18;100411.16;;;15.15;41.21
68107;BME280;54892;47.488;19.026;2023-04-10T14:04:22;100405.38;;;15.02;42.32
68107;BME280;54892;47.488;19.026;2023-04-10T14:07:25;100403.22;;;15.10;41.81
68107;BME280;54892;47.488;19.026;2023-04-10T14:10:28;100390.16;;;15.13;42.68
68107;BME280;54892;47.488;19.026;2023-04-10T14:13:31;100383.78;;;15.09;41.80
68107;BME280;54892;47.488;19.026;2023-04-10T14:16:34;100386.97;;;15.11;41.85
68107;BME280;54892;47.488;19.026;2023-04-10T14:19:40;100374.16;;;15.18;42.40
68107;BME280;54892;47.488;19.026;2023-04-10T14:22:42;100372.28;;;15.24;41.31
68107;BME280;54892;47.488;19.026;2023-04-10T14:25:48;100371.56;;;15.13;40.50
68107;BME280;54892;47.488;19.026;2023-04-10T14:28:51;100368.28;;;15.21;41.09
68107;BME280;54892;47.488;19.026;2023-04-10T14:31:54;100363.22;;;15.25;41.14
68107;BME280;54892;47.488;19.026;2023-04-10T14:34:59;100352.53;;;15.30;41.34
68107;BME280;54892;47.488;19.026;2023-04-10T14:38:02;100345.59;;;15.34;41.43
68107;BME280;54892;47.488;19.026;2023-04-10T14:41:05;100346.22;;;15.56;42.25
68107;BME280;54892;47.488;19.026;2023-04-10T14:44:08;100348.66;;;15.52;40.04
68107;BME280;54892;47.488;19.026;2023-04-10T14:47:11;100338.34;;;15.45;40.10
68107;BME280;54892;47.488;19.026;2023-04-10T14:50:16;100334.03;;;15.15;40.05
68107;BME280;54892;47.488;19.026;2023-04-10T14:53:19;100331.66;;;15.13;40.86
68107;BME280;54892;47.488;19.026;2023-04-10T14:56:23;100337.84;;;15.03;40.14
68107;BME280;54892;47.488;19.026;2023-04-10T14:59:26;100333.47;;;14.83;40.75
68107;BME280;54892;47.488;19.026;2023-04-10T15:02:29;100326.06;;;14.75;41.67
68107;BME280;54892;47.488;19.026;2023-04-10T15:05:34;100320.50;;;14.71;42.24
68107;BME280;54892;47.488;19.026;2023-04-10T15:08:37;100328.25;;;14.68;42.23
68107;BME280;54892;47.488;19.026;2023-04-10T15:11:39;100315.75;;;14.63;42.20
68107;BME280;54892;47.488;19.026;2023-04-10T15:14:42;100317.06;;;14.60;41.63
68107;BME280;54892;47.488;19.026;2023-04-10T15:17:46;100303.03;;;14.55;41.48
68107;BME280;54892;47.488;19.026;2023-04-10T15:20:50;100304.63;;;14.51;41.83
68107;BME280;54892;47.488;19.026;2023-04-10T15:23:55;100303.62;;;14.46;42.76
68107;BME280;54892;47.488;19.026;2023-04-10T15:26:59;100299.62;;;14.44;41.93
68107;BME280;54892;47.488;19.026;2023-04-10T15:30:02;100293.28;;;14.40;42.45
68107;BME280;54892;47.488;19.026;2023-04-10T15:33:06;100289.81;;;14.44;42.62
68107;BME280;54892;47.488;19.026;2023-04-10T15:36:10;100289.50;;;14.51;42.31
68107;BME280;54892;47.488;19.026;2023-04-10T15:39:14;100289.44;;;14.67;42.60
68107;BME280;54892;47.488;19.026;2023-04-10T15:42:17;100287.53;;;14.77;42.47
68107;BME280;54892;47.488;19.026;2023-04-10T15:45:20;100285.91;;;14.82;42.21
68107;BME280;54892;47.488;19.026;2023-04-10T15:48:23;100280.56;;;14.82;41.17
68107;BME280;54892;47.488;19.026;2023-04-10T15:51:28;100281.09;;;14.84;41.61
68107;BME280;54892;47.488;19.026;2023-04-10T15:54:31;100278.50;;;14.79;41.45
68107;BME280;54892;47.488;19.026;2023-04-10T15:57:34;100277.69;;;14.78;41.16
68107;BME280;54892;47.488;19.026;2023-04-10T16:00:38;100283.84;;;14.73;41.95
68107;BME280;54892;47.488;19.026;2023-04-10T16:03:41;100268.41;;;14.75;41.96
68107;BME280;54892;47.488;19.026;2023-04-10T16:06:45;100264.41;;;14.78;42.19
68107;BME280;54892;47.488;19.026;2023-04-10T16:09:48;100264.63;;;14.82;42.22